Time;durP1;ratioP1;P1;durP2;ratioP2;P2;SDS_P1;SDS_P2;PMS_P1;PMS_P2;Temp;Humidity;BMP_temperature;BMP_pressure;BME280_temperature;BME280_humidity;BME280_pressure;Samples;Min_cycle;Max_cycle;Signal;HPM_P1;HPM_P2
2023/09/28 00:00:38;;;;;;;32.13;23.52;;;;;;;12.56;100.00;96129.47;1026623;28;20261;-76
2023/09/28 00:01:18;;;;;;;31.38;22.55;;;;;;;12.46;100.00;96125.78;1026605;28;20543;-77
2023/09/28 00:01:49;;;;;;;33.05;22.73;;;;;;;12.50;100.00;96133.94;1022830;29;20026;-76
2023/09/28 00:02:19;;;;;;;37.90;23.38;;;;;;;12.48;100.00;96139.47;1030263;28;20140;-77
2023/09/28 00:02:50;;;;;;;32.47;23.20;;;;;;;12.47;100.00;96143.19;1028147;28;20027;-76
2023/09/28 00:03:20;;;;;;;33.45;23.00;;;;;;;12.46;100.00;96141.56;1030233;28;20100;-78
2023/09/28 00:03:51;;;;;;;35.25;24.80;;;;;;;12.46;100.00;96138.94;1030653;28;20038;-76
2023/09/28 00:04:22;;;;;;;34.20;23.58;;;;;;;12.46;100.00;96143.44;1026011;28;20023;-76
2023/09/28 00:04:52;;;;;;;32.88;24.50;;;;;;;12.43;100.00;96139.47;1026560;28;20034;-76
2023/09/28 00:05:23;;;;;;;33.38;24.17;;;;;;;12.39;100.00;96135.00;1026357;28;20015;-76
2023/09/28 00:05:53;;;;;;;35.88;25.10;;;;;;;12.42;100.00;96145.78;1022691;28;20397;-76
2023/09/28 00:06:24;;;;;;;34.80;25.45;;;;;;;12.43;100.00;96141.31;1022473;28;20094;-76
2023/09/28 00:06:54;;;;;;;35.63;25.33;;;;;;;12.43;100.00;96126.31;1023058;28;20020;-76
2023/09/28 00:07:25;;;;;;;39.08;25.48;;;;;;;12.46;100.00;96138.16;1026773;28;20018;-76
2023/09/28 00:07:55;;;;;;;34.05;24.75;;;;;;;12.40;100.00;96137.38;1026666;28;20408;-76
2023/09/28 00:08:26;;;;;;;34.20;25.08;;;;;;;12.36;100.00;96131.06;1018595;29;20053;-76
2023/09/28 00:08:56;;;;;;;36.97;25.48;;;;;;;12.42;100.00;96145.78;1015044;29;20037;-77
2023/09/28 00:09:27;;;;;;;33.42;25.67;;;;;;;12.41;100.00;96146.84;1019347;29;20020;-76
2023/09/28 00:09:57;;;;;;;34.45;25.30;;;;;;;12.41;100.00;96143.44;1023040;29;20011;-77
2023/09/28 00:10:28;;;;;;;36.78;25.45;;;;;;;12.37;100.00;96148.41;1023406;28;20572;-77
2023/09/28 00:10:59;;;;;;;39.25;26.55;;;;;;;12.35;100.00;96139.22;1023478;28;20023;-77
2023/09/28 00:11:29;;;;;;;33.00;25.27;;;;;;;12.36;100.00;96138.94;1022489;29;20062;-76
2023/09/28 00:12:00;;;;;;;32.50;24.95;;;;;;;12.38;100.00;96144.75;1019314;29;20462;-77
2023/09/28 00:12:31;;;;;;;34.97;24.52;;;;;;;12.43;100.00;96146.59;1015865;29;20024;-75
2023/09/28 00:13:02;;;;;;;35.78;25.73;;;;;;;12.44;100.00;96150.78;1019524;29;20055;-75
2023/09/28 00:13:33;;;;;;;32.72;23.70;;;;;;;12.41;100.00;96141.59;1023100;29;20728;-78
2023/09/28 00:14:04;;;;;;;33.63;23.80;;;;;;;12.38;100.00;96143.97;1023622;28;20051;-76
2023/09/28 00:14:34;;;;;;;32.35;23.75;;;;;;;12.30;100.00;96132.09;1022670;28;20106;-75
2023/09/28 00:15:05;;;;;;;35.50;24.38;;;;;;;12.38;100.00;96138.69;1026033;28;20505;-78
2023/09/28 00:15:37;;;;;;;31.90;23.95;;;;;;;12.35;100.00;96137.38;1035185;28;20041;-76
2023/09/28 00:16:07;;;;;;;38.78;25.80;;;;;;;12.30;100.00;96134.72;1031038;28;20065;-76
2023/09/28 00:16:39;;;;;;;42.25;25.58;;;;;;;12.33;100.00;96136.06;1031296;28;20613;-77
2023/09/28 00:17:10;;;;;;;32.22;24.17;;;;;;;12.30;100.00;96142.63;1031321;28;20045;-76
2023/09/28 00:17:41;;;;;;;31.55;23.58;;;;;;;12.25;100.00;96130.28;1027776;28;20424;-76
2023/09/28 00:18:12;;;;;;;34.47;24.63;;;;;;;12.26;100.00;96141.59;1026988;28;20110;-77
2023/09/28 00:18:43;;;;;;;32.65;24.55;;;;;;;12.28;100.00;96139.50;1019451;29;20110;-76
2023/09/28 00:19:14;;;;;;;33.05;25.17;;;;;;;12.28;100.00;96139.50;1015631;29;20028;-75
2023/09/28 00:19:44;;;;;;;35.22;25.60;;;;;;;12.29;100.00;96141.06;1023372;29;20497;-75
2023/09/28 00:20:19;;;;;;;35.97;26.25;;;;;;;12.26;100.00;96138.94;1023334;28;20031;-77
2023/09/28 00:20:51;;;;;;;32.97;24.60;;;;;;;12.28;100.00;96144.75;1020312;29;20050;-75
2023/09/28 00:21:21;;;;;;;36.88;25.15;;;;;;;12.29;100.00;96141.06;1023306;29;20587;-76
2023/09/28 00:21:52;;;;;;;33.25;24.10;;;;;;;12.27;100.00;96140.53;1025488;28;20082;-75
2023/09/28 00:22:22;;;;;;;32.67;24.17;;;;;;;12.29;100.00;96148.16;1024147;28;20043;-74
2023/09/28 00:22:54;;;;;;;39.95;25.30;;;;;;;12.30;100.00;96147.09;1027576;28;20023;-76
2023/09/28 00:23:24;;;;;;;31.05;22.73;;;;;;;12.25;100.00;96148.69;1027360;28;20029;-76
2023/09/28 00:23:55;;;;;;;34.78;24.75;;;;;;;12.23;100.00;96144.72;1027325;28;20042;-76
2023/09/28 00:24:26;;;;;;;33.40;24.63;;;;;;;12.20;100.00;96150.53;1023396;28;20127;-75
2023/09/28 00:24:56;;;;;;;31.67;23.50;;;;;;;12.14;100.00;96135.78;1027739;28;20061;-76
2023/09/28 00:25:27;;;;;;;32.97;23.88;;;;;;;12.18;100.00;96155.28;1027397;28;20031;-77
2023/09/28 00:25:57;;;;;;;32.85;23.85;;;;;;;12.10;100.00;96134.72;1027261;28;20030;-76
2023/09/28 00:26:28;;;;;;;29.48;22.38;;;;;;;12.14;100.00;96148.94;1023214;28;20035;-77
2023/09/28 00:26:59;;;;;;;32.30;24.00;;;;;;;12.13;100.00;96150.78;1019270;29;20027;-76
2023/09/28 00:27:30;;;;;;;36.10;24.13;;;;;;;12.09;100.00;96151.56;1023521;29;20113;-76
2023/09/28 00:28:00;;;;;;;32.15;24.88;;;;;;;12.09;100.00;96147.09;1019424;29;20082;-76
2023/09/28 00:28:31;;;;;;;34.00;23.77;;;;;;;12.06;100.00;96146.84;1020528;28;20977;-76
2023/09/28 00:29:02;;;;;;;33.55;24.00;;;;;;;12.07;100.00;96153.66;1027333;28;20038;-75
2023/09/28 00:29:32;;;;;;;32.45;24.20;;;;;;;12.05;100.00;96150.53;1027613;28;20105;-76
2023/09/28 00:30:05;;;;;;;31.30;22.58;;;;;;;12.00;100.00;96149.47;1031338;28;20038;-77
2023/09/28 00:30:36;;;;;;;30.90;23.15;;;;;;;11.97;100.00;96144.72;1035134;28;20564;-77
2023/09/28 00:31:08;;;;;;;31.75;22.98;;;;;;;12.02;100.00;96147.34;1027296;28;20026;-77
2023/09/28 00:31:38;;;;;;;33.10;24.10;;;;;;;11.95;100.00;96141.56;1031240;28;20038;-75
2023/09/28 00:32:09;;;;;;;35.05;23.52;;;;;;;11.98;100.00;96146.31;1030393;28;20045;-78
2023/09/28 00:32:42;;;;;;;30.10;22.77;;;;;;;11.95;100.00;96152.06;1024514;28;20027;-75
2023/09/28 00:33:12;;;;;;;33.95;23.15;;;;;;;11.91;100.00;96155.50;1027623;28;20081;-76
2023/09/28 00:33:43;;;;;;;32.15;23.00;;;;;;;11.84;100.00;96141.75;1031226;28;20570;-75
2023/09/28 00:34:14;;;;;;;34.15;23.17;;;;;;;11.93;100.00;96148.91;1025077;28;20031;-76
2023/09/28 00:34:44;;;;;;;32.90;23.17;;;;;;;11.91;100.00;96151.03;1026530;28;20042;-76
2023/09/28 00:35:15;;;;;;;34.10;22.63;;;;;;;11.87;100.00;96147.34;1023372;29;20043;-76
2023/09/28 00:35:46;;;;;;;31.65;23.23;;;;;;;11.88;100.00;96148.91;1023397;28;20035;-77
2023/09/28 00:36:16;;;;;;;30.88;22.83;;;;;;;11.87;100.00;96155.22;1023245;29;20035;-75
2023/09/28 00:36:47;;;;;;;32.58;23.10;;;;;;;11.85;100.00;96148.66;1023150;29;20031;-76
2023/09/28 00:37:17;;;;;;;31.08;22.05;;;;;;;11.84;100.00;96149.63;1019304;29;20038;-76
2023/09/28 00:37:48;;;;;;;28.77;21.75;;;;;;;11.78;100.00;96146.22;1022659;29;20035;-77
2023/09/28 00:38:19;;;;;;;33.97;21.42;;;;;;;11.84;100.00;96153.13;1023326;29;20046;-75
2023/09/28 00:38:49;;;;;;;35.75;23.38;;;;;;;11.82;100.00;96149.13;1023276;29;20102;-75
2023/09/28 00:39:19;;;;;;;30.83;21.25;;;;;;;11.82;100.00;96146.50;1025200;28;20028;-76
2023/09/28 00:39:50;;;;;;;37.22;22.45;;;;;;;11.75;100.00;96149.38;1027459;28;20026;-75
2023/09/28 00:40:27;;;;;;;32.22;22.77;;;;;;;11.77;100.00;96150.72;1023314;29;20568;-75
2023/09/28 00:40:58;;;;;;;29.85;22.70;;;;;;;11.73;100.00;96144.38;1024142;28;20074;-76
2023/09/28 00:41:28;;;;;;;32.28;23.20;;;;;;;11.75;100.00;96144.91;1023348;29;20038;-76
2023/09/28 00:41:58;;;;;;;28.15;21.92;;;;;;;11.73;100.00;96143.56;1024300;28;20408;-76
2023/09/28 00:42:29;;;;;;;30.98;22.05;;;;;;;11.70;100.00;96150.16;1023229;28;20027;-76
2023/09/28 00:43:00;;;;;;;30.33;22.10;;;;;;;11.63;100.00;96139.09;1025865;28;20035;-76
2023/09/28 00:43:30;;;;;;;31.13;22.77;;;;;;;11.70;100.00;96154.59;1027444;28;20548;-76
2023/09/28 00:44:01;;;;;;;29.73;22.15;;;;;;;11.63;100.00;96143.56;1027378;28;20038;-75
2023/09/28 00:44:31;;;;;;;35.53;23.42;;;;;;;11.66;100.00;96161.44;1018616;29;20555;-76
2023/09/28 00:45:02;;;;;;;30.35;22.10;;;;;;;11.60;100.00;96151.94;1023140;28;20027;-74
2023/09/28 00:45:33;;;;;;;31.45;22.33;;;;;;;11.60;100.00;96155.38;1023469;28;20019;-76
2023/09/28 00:46:03;;;;;;;30.40;22.83;;;;;;;11.59;100.00;96153.00;1023212;28;20031;-78
2023/09/28 00:46:34;;;;;;;32.38;21.92;;;;;;;11.55;100.00;96147.47;1023493;28;20540;-77
2023/09/28 00:47:05;;;;;;;32.83;23.00;;;;;;;11.59;100.00;96163.53;1019212;29;20032;-76
2023/09/28 00:47:38;;;;;;;35.70;22.95;;;;;;;11.55;100.00;96158.00;1015167;29;20040;-76
2023/09/28 00:48:09;;;;;;;34.22;24.08;;;;;;;11.51;100.00;96149.84;1015445;29;20121;-76
2023/09/28 00:48:53;;;;;;;35.33;24.15;;;;;;;11.57;100.00;96151.44;1027229;28;20035;-77
2023/09/28 00:49:24;;;;;;;34.03;24.85;;;;;;;11.60;100.00;96160.63;1027055;28;20475;-76
2023/09/28 00:49:55;;;;;;;37.75;23.55;;;;;;;11.62;100.00;96157.75;1023161;29;20341;-76
2023/09/28 00:50:26;;;;;;;35.75;25.10;;;;;;;11.68;100.00;96156.72;1023175;29;20555;-76
2023/09/28 00:50:59;;;;;;;37.53;25.80;;;;;;;11.73;100.00;96157.50;1015406;29;20123;-76
2023/09/28 00:51:31;;;;;;;36.08;25.38;;;;;;;11.74;100.00;96159.09;1019179;29;20028;-76
2023/09/28 00:52:02;;;;;;;37.67;25.52;;;;;;;11.72;100.00;96147.25;1020003;29;20424;-76
2023/09/28 00:52:33;;;;;;;36.05;24.65;;;;;;;11.78;100.00;96157.53;1024753;28;20543;-76
2023/09/28 00:53:06;;;;;;;36.67;25.58;;;;;;;11.83;100.00;96159.38;1027186;28;20023;-78
2023/09/28 00:53:36;;;;;;;39.13;25.25;;;;;;;11.82;100.00;96159.66;1027208;28;20030;-76
2023/09/28 00:54:07;;;;;;;35.15;24.70;;;;;;;11.82;100.00;96157.81;1023034;28;20038;-76
2023/09/28 00:54:38;;;;;;;32.80;24.42;;;;;;;11.86;100.00;96160.72;1026411;28;20027;-74
2023/09/28 00:55:09;;;;;;;35.42;24.58;;;;;;;11.87;100.00;96160.50;1015387;29;20028;-77
2023/09/28 00:55:39;;;;;;;35.72;26.92;;;;;;;11.83;100.00;96153.34;1023036;29;20106;-75
2023/09/28 00:56:10;;;;;;;39.78;26.15;;;;;;;11.83;100.00;96151.50;1019175;29;20637;-76
2023/09/28 00:56:41;;;;;;;37.65;25.83;;;;;;;11.96;100.00;96168.66;1023243;29;20024;-76
2023/09/28 00:57:12;;;;;;;35.47;25.27;;;;;;;11.93;100.00;96159.44;1023303;29;20015;-75
2023/09/28 00:57:43;;;;;;;36.85;24.58;;;;;;;11.93;100.00;96159.44;1019146;29;20051;-75
2023/09/28 00:58:13;;;;;;;37.13;25.30;;;;;;;11.90;100.00;96153.91;1023024;28;20110;-76
2023/09/28 00:58:46;;;;;;;35.97;25.85;;;;;;;11.93;100.00;96156.00;1023303;29;20514;-78
2023/09/28 00:59:18;;;;;;;34.60;25.45;;;;;;;11.97;100.00;96160.50;1023267;29;20016;-77
2023/09/28 00:59:49;;;;;;;39.20;26.77;;;;;;;11.98;100.00;96161.28;1022949;29;20131;-75
2023/09/28 01:00:26;;;;;;;35.97;25.92;;;;;;;11.93;100.00;96162.06;1019188;29;20031;-76
2023/09/28 01:01:00;;;;;;;38.17;26.42;;;;;;;11.97;100.00;96157.06;1023298;29;20030;-75
2023/09/28 01:01:31;;;;;;;36.33;25.38;;;;;;;11.96;100.00;96156.28;1023100;29;20027;-75
2023/09/28 01:02:02;;;;;;;35.33;26.15;;;;;;;12.00;100.00;96161.81;1024539;28;20271;-75
2023/09/28 01:02:32;;;;;;;41.13;26.25;;;;;;;12.02;100.00;96162.34;1027116;28;20023;-75
2023/09/28 01:03:05;;;;;;;34.35;25.58;;;;;;;12.00;100.00;96167.88;1026545;28;20037;-76
2023/09/28 01:03:36;;;;;;;37.10;25.27;;;;;;;12.02;100.00;96163.13;1023622;28;20159;-76
2023/09/28 01:04:06;;;;;;;39.17;26.13;;;;;;;12.01;100.00;96161.56;1022819;29;20070;-75
2023/09/28 01:04:37;;;;;;;34.63;26.00;;;;;;;11.97;100.00;96159.69;1014610;29;20028;-76
2023/09/28 01:05:08;;;;;;;34.03;24.75;;;;;;;12.04;100.00;96162.88;1015583;29;20024;-75
2023/09/28 01:05:40;;;;;;;35.45;25.52;;;;;;;12.04;100.00;96162.88;1019571;28;20844;-75
2023/09/28 01:06:10;;;;;;;35.10;25.55;;;;;;;12.03;100.00;96169.97;1027356;28;20495;-76
2023/09/28 01:06:41;;;;;;;35.88;24.77;;;;;;;12.03;100.00;96154.19;1027210;28;20022;-75
2023/09/28 01:07:12;;;;;;;39.63;26.15;;;;;;;12.01;100.00;96163.41;1027305;28;20027;-75
2023/09/28 01:07:43;;;;;;;37.42;25.90;;;;;;;11.98;100.00;96156.81;1023145;29;20077;-78
2023/09/28 01:08:21;;;;;;;33.22;24.27;;;;;;;11.94;100.00;96153.13;1025118;28;20102;-75
2023/09/28 01:08:54;;;;;;;33.17;25.00;;;;;;;12.01;100.00;96166.03;1027125;28;20603;-75
2023/09/28 01:09:26;;;;;;;35.15;24.90;;;;;;;11.99;100.00;96158.38;1023156;29;20027;-75
2023/09/28 01:09:57;;;;;;;35.50;25.10;;;;;;;12.00;100.00;96160.00;1023042;28;20095;-77
2023/09/28 01:10:29;;;;;;;36.65;25.63;;;;;;;12.03;100.00;96153.41;1026059;28;20023;-75
2023/09/28 01:11:02;;;;;;;34.92;25.30;;;;;;;11.95;100.00;96153.91;1027485;28;20109;-76
2023/09/28 01:11:32;;;;;;;34.75;24.75;;;;;;;11.95;100.00;96154.72;1027675;28;20038;-75
2023/09/28 01:12:06;;;;;;;33.05;24.90;;;;;;;11.94;100.00;96155.75;1023100;29;20039;-78
2023/09/28 01:12:38;;;;;;;36.88;25.65;;;;;;;11.90;100.00;96149.44;1019173;29;20054;-76
2023/09/28 01:13:12;;;;;;;34.70;24.27;;;;;;;11.99;100.00;96157.59;1027209;28;20512;-77
2023/09/28 01:13:44;;;;;;;34.78;25.02;;;;;;;11.96;100.00;96161.53;1023006;28;20023;-75
2023/09/28 01:14:15;;;;;;;38.72;25.45;;;;;;;11.95;100.00;96164.44;1019088;29;20110;-76
2023/09/28 01:14:47;;;;;;;33.97;25.00;;;;;;;11.94;100.00;96157.63;1019302;29;20502;-75
2023/09/28 01:15:19;;;;;;;33.47;25.33;;;;;;;11.94;100.00;96165.50;1019227;29;20028;-77
2023/09/28 01:15:49;;;;;;;35.05;24.42;;;;;;;11.94;100.00;96161.03;1019258;29;20103;-76
2023/09/28 01:16:20;;;;;;;35.83;24.95;;;;;;;11.93;100.00;96158.63;1023064;29;20078;-77
2023/09/28 01:16:50;;;;;;;36.67;25.02;;;;;;;11.96;100.00;96158.13;1019294;29;20035;-75
2023/09/28 01:17:21;;;;;;;35.38;25.30;;;;;;;11.91;100.00;96147.59;1023307;28;20035;-76
2023/09/28 01:17:52;;;;;;;34.50;24.65;;;;;;;11.92;100.00;96163.13;1023206;29;20142;-76
2023/09/28 01:18:22;;;;;;;36.17;25.27;;;;;;;11.94;100.00;96165.50;1018757;29;20087;-76
2023/09/28 01:18:53;;;;;;;34.85;25.25;;;;;;;11.93;100.00;96156.78;1019382;29;20074;-76
2023/09/28 01:19:23;;;;;;;38.13;26.05;;;;;;;11.95;100.00;96161.81;1019447;29;20673;-77
2023/09/28 01:19:54;;;;;;;37.13;26.02;;;;;;;11.94;100.00;96165.50;1019330;28;20036;-76
2023/09/28 01:20:34;;;;;;;34.50;25.42;;;;;;;11.93;100.00;96162.06;1022381;28;20039;-76
2023/09/28 01:21:10;;;;;;;37.25;25.05;;;;;;;11.92;100.00;96165.75;1022943;29;20027;-74
2023/09/28 01:21:41;;;;;;;36.17;24.27;;;;;;;11.90;100.00;96161.78;1021993;28;20031;-75
2023/09/28 01:22:14;;;;;;;38.55;24.10;;;;;;;11.91;100.00;96166.03;1027474;28;20027;-76
2023/09/28 01:22:45;;;;;;;37.30;24.80;;;;;;;11.94;100.00;96168.91;1023050;28;20554;-76
2023/09/28 01:23:16;;;;;;;38.90;25.77;;;;;;;11.93;100.00;96169.16;1024491;28;20114;-75
2023/09/28 01:23:47;;;;;;;32.38;25.42;;;;;;;11.92;100.00;96173.63;1023013;29;20027;-77
2023/09/28 01:24:18;;;;;;;38.83;26.08;;;;;;;11.91;100.00;96166.03;1022965;29;20126;-79
2023/09/28 01:24:48;;;;;;;36.33;25.08;;;;;;;11.92;100.00;96164.97;1027038;28;20034;-76
2023/09/28 01:25:19;;;;;;;36.63;24.98;;;;;;;11.85;100.00;96161.78;1023338;28;20035;-75
2023/09/28 01:25:50;;;;;;;35.65;24.00;;;;;;;11.87;100.00;96170.19;1022999;28;20117;-77
2023/09/28 01:26:20;;;;;;;34.70;24.98;;;;;;;11.87;100.00;96160.50;1019295;29;20075;-76
2023/09/28 01:26:51;;;;;;;37.03;25.65;;;;;;;11.91;100.00;96169.44;1024119;28;20035;-75
2023/09/28 01:27:21;;;;;;;32.40;23.92;;;;;;;11.89;100.00;96166.25;1027116;28;20033;-75
2023/09/28 01:27:52;;;;;;;35.30;24.63;;;;;;;11.89;100.00;96168.88;1019346;29;20019;-75
2023/09/28 01:28:22;;;;;;;38.00;24.80;;;;;;;11.87;100.00;96165.75;1019555;28;20035;-75
2023/09/28 01:28:53;;;;;;;31.40;23.63;;;;;;;11.88;100.00;96167.31;1022988;28;20031;-76
2023/09/28 01:29:23;;;;;;;32.97;22.48;;;;;;;11.90;100.00;96164.41;1023295;28;20035;-76
2023/09/28 01:29:54;;;;;;;34.78;24.38;;;;;;;11.88;100.00;96162.06;1023079;29;20039;-75
2023/09/28 01:30:25;;;;;;;34.28;25.00;;;;;;;11.86;100.00;96161.53;1023133;28;20023;-76
2023/09/28 01:30:56;;;;;;;34.08;24.45;;;;;;;11.91;100.00;96160.75;1027125;28;20031;-75
2023/09/28 01:31:27;;;;;;;38.15;23.90;;;;;;;11.91;100.00;96166.03;1027192;28;20077;-77
2023/09/28 01:31:58;;;;;;;33.97;23.60;;;;;;;11.92;100.00;96170.22;1023169;28;20050;-77
2023/09/28 01:32:28;;;;;;;34.22;23.10;;;;;;;11.86;100.00;96152.84;1024885;28;20469;-75
2023/09/28 01:32:59;;;;;;;30.92;23.23;;;;;;;11.88;100.00;96156.81;1027605;28;20027;-76
2023/09/28 01:33:30;;;;;;;32.38;23.30;;;;;;;11.91;100.00;96164.16;1019028;29;20023;-77
2023/09/28 01:34:00;;;;;;;29.38;22.67;;;;;;;11.91;100.00;96166.81;1019458;28;20024;-77
2023/09/28 01:34:30;;;;;;;31.08;22.45;;;;;;;11.92;100.00;96164.97;1022492;29;20508;-76
2023/09/28 01:35:01;;;;;;;29.70;23.35;;;;;;;11.92;100.00;96168.38;1019009;29;20028;-75
2023/09/28 01:35:31;;;;;;;36.22;23.95;;;;;;;11.91;100.00;96161.53;1015235;29;20024;-74
2023/09/28 01:36:02;;;;;;;32.00;22.05;;;;;;;11.91;100.00;96163.38;1016297;29;20032;-77
2023/09/28 01:36:32;;;;;;;28.90;22.40;;;;;;;11.88;100.00;96163.91;1019214;29;20030;-76
2023/09/28 01:37:03;;;;;;;34.30;22.75;;;;;;;11.91;100.00;96166.03;1015433;29;20047;-76
2023/09/28 01:37:50;;;;;;;31.23;22.27;;;;;;;11.88;100.00;96162.06;1018116;28;20024;-76
2023/09/28 01:38:28;;;;;;;29.63;21.23;;;;;;;11.89;100.00;96163.63;1019225;29;20035;-78
2023/09/28 01:39:02;;;;;;;30.33;22.02;;;;;;;11.90;100.00;96165.19;1022399;29;20078;-76
2023/09/28 01:39:33;;;;;;;27.50;21.30;;;;;;;11.88;100.00;96162.06;1022954;28;20397;-76
2023/09/28 01:40:05;;;;;;;29.80;20.98;;;;;;;11.85;100.00;96157.31;1022983;28;20043;-75
2023/09/28 01:40:38;;;;;;;30.05;21.40;;;;;;;11.87;100.00;96159.66;1023156;29;20456;-76
2023/09/28 01:41:09;;;;;;;32.08;21.25;;;;;;;11.89;100.00;96170.72;1027563;28;20027;-78
2023/09/28 01:41:39;;;;;;;25.70;21.27;;;;;;;11.88;100.00;96161.28;1031048;28;20023;-76
2023/09/28 01:42:10;;;;;;;28.15;21.73;;;;;;;11.87;100.00;96162.31;1023380;28;20062;-76
2023/09/28 01:42:40;;;;;;;27.42;21.13;;;;;;;11.87;100.00;96163.13;1018315;29;20027;-81
2023/09/28 01:43:11;;;;;;;28.80;21.85;;;;;;;11.88;100.00;96158.66;1018850;29;20098;-75
2023/09/28 01:43:42;;;;;;;27.25;21.50;;;;;;;11.87;100.00;96165.75;1019236;29;20098;-75
2023/09/28 01:44:12;;;;;;;29.27;21.73;;;;;;;11.88;100.00;96159.44;1022967;28;20035;-76
2023/09/28 01:44:43;;;;;;;28.58;20.30;;;;;;;11.82;100.00;96157.81;1022710;28;20592;-76
2023/09/28 01:45:15;;;;;;;29.13;20.85;;;;;;;11.82;100.00;96165.69;1022960;28;20027;-76
2023/09/28 01:45:45;;;;;;;30.55;20.25;;;;;;;11.78;100.00;96151.50;1015279;29;20035;-77
2023/09/28 01:46:16;;;;;;;27.63;20.83;;;;;;;11.82;100.00;96157.03;1015297;29;20031;-75
2023/09/28 01:46:46;;;;;;;27.65;20.08;;;;;;;11.80;100.00;96159.88;1015834;29;20032;-76
2023/09/28 01:47:16;;;;;;;32.53;21.77;;;;;;;11.77;100.00;96163.06;1023484;28;20031;-76
2023/09/28 01:47:47;;;;;;;29.50;21.45;;;;;;;11.70;100.00;96152.78;1026874;28;20026;-77
2023/09/28 01:48:18;;;;;;;28.77;19.40;;;;;;;11.70;100.00;96162.50;1027260;28;20485;-76
2023/09/28 01:48:49;;;;;;;28.25;20.90;;;;;;;11.66;100.00;96158.81;1027222;28;20078;-76
2023/09/28 01:49:20;;;;;;;28.05;20.88;;;;;;;11.71;100.00;96157.00;1031016;28;20554;-76
2023/09/28 01:49:50;;;;;;;31.75;21.45;;;;;;;11.72;100.00;96170.94;1031022;28;20157;-76
2023/09/28 01:50:21;;;;;;;30.65;21.13;;;;;;;11.72;100.00;96163.03;1031185;28;20492;-75
2023/09/28 01:50:51;;;;;;;28.02;20.52;;;;;;;11.73;100.00;96164.59;1023229;29;20039;-76
2023/09/28 01:51:22;;;;;;;29.58;20.73;;;;;;;11.74;100.00;96164.38;1026218;28;20018;-76
2023/09/28 01:51:53;;;;;;;30.15;20.88;;;;;;;11.77;100.00;96171.75;1026953;28;20102;-77
2023/09/28 01:52:23;;;;;;;27.60;20.75;;;;;;;11.75;100.00;96168.56;1023046;28;20042;-76
2023/09/28 01:52:54;;;;;;;26.23;19.95;;;;;;;11.72;100.00;96166.44;1024941;28;20043;-77
2023/09/28 01:53:24;;;;;;;27.65;20.85;;;;;;;11.75;100.00;96165.16;1027171;28;20023;-76
2023/09/28 01:53:55;;;;;;;25.88;20.20;;;;;;;11.76;100.00;96161.47;1026981;28;20105;-76
2023/09/28 01:54:25;;;;;;;26.75;19.85;;;;;;;11.68;100.00;96156.72;1030248;28;20458;-76
2023/09/28 01:54:56;;;;;;;29.90;20.25;;;;;;;11.74;100.00;96168.84;1026941;28;20101;-76
2023/09/28 01:55:29;;;;;;;24.75;19.60;;;;;;;11.78;100.00;96160.16;1022901;29;20038;-76
2023/09/28 01:56:02;;;;;;;26.92;20.27;;;;;;;11.75;100.00;96167.78;1023025;29;20054;-77
2023/09/28 01:56:32;;;;;;;28.98;20.65;;;;;;;11.73;100.00;96165.41;1018910;29;20305;-76
2023/09/28 01:57:03;;;;;;;23.92;18.77;;;;;;;11.75;100.00;96160.69;1020626;28;20505;-75
2023/09/28 01:57:33;;;;;;;24.25;19.70;;;;;;;11.77;100.00;96160.44;1020154;28;20126;-76
2023/09/28 01:58:07;;;;;;;29.15;20.85;;;;;;;11.78;100.00;96162.00;1022985;29;20500;-76
2023/09/28 01:58:37;;;;;;;28.00;19.38;;;;;;;11.82;100.00;96167.53;1026973;28;20122;-76
2023/09/28 01:59:08;;;;;;;26.48;19.58;;;;;;;11.79;100.00;96164.38;1023130;29;20047;-76
2023/09/28 01:59:38;;;;;;;26.92;19.60;;;;;;;11.78;100.00;96168.06;1018893;29;20036;-75
2023/09/28 02:00:15;;;;;;;26.75;19.70;;;;;;;11.79;100.00;96163.56;1018942;29;20036;-75
2023/09/28 02:00:46;;;;;;;25.30;19.08;;;;;;;11.75;100.00;96159.91;1024712;28;20081;-76
2023/09/28 02:01:23;;;;;;;39.35;22.02;;;;;;;11.76;100.00;96170.13;1026791;28;20742;-76
2023/09/28 02:01:53;;;;;;;25.30;20.52;;;;;;;11.74;100.00;96168.84;1023115;29;20148;-76
2023/09/28 02:02:24;;;;;;;26.30;19.23;;;;;;;11.71;100.00;96166.72;1019834;29;20513;-76
2023/09/28 02:02:55;;;;;;;25.42;19.80;;;;;;;11.78;100.00;96167.25;1022953;28;20027;-75
2023/09/28 02:03:26;;;;;;;25.33;19.40;;;;;;;11.70;100.00;96159.88;1023063;29;20504;-76
2023/09/28 02:03:56;;;;;;;26.85;20.45;;;;;;;11.74;100.00;96166.22;1022796;28;20027;-76
2023/09/28 02:04:27;;;;;;;29.17;20.65;;;;;;;11.70;100.00;96167.75;1022368;29;20042;-76
2023/09/28 02:04:57;;;;;;;24.67;18.23;;;;;;;11.72;100.00;96163.81;1026893;28;20401;-77
2023/09/28 02:05:32;;;;;;;27.13;19.67;;;;;;;11.72;100.00;96168.28;1031075;28;20022;-75
2023/09/28 02:06:02;;;;;;;28.88;19.83;;;;;;;11.68;100.00;96164.63;1031137;28;20648;-76
2023/09/28 02:06:33;;;;;;;26.40;19.75;;;;;;;11.72;100.00;96169.09;1026688;28;20147;-76
2023/09/28 02:07:04;;;;;;;24.10;19.30;;;;;;;11.67;100.00;96166.44;1023050;29;20499;-76
2023/09/28 02:07:35;;;;;;;23.58;19.38;;;;;;;11.72;100.00;96173.56;1019866;28;20484;-77
2023/09/28 02:08:09;;;;;;;27.02;19.65;;;;;;;11.67;100.00;96160.38;1023225;28;20035;-77
2023/09/28 02:08:40;;;;;;;27.38;19.42;;;;;;;11.72;100.00;96170.94;1019821;29;20031;-77
2023/09/28 02:09:11;;;;;;;26.38;19.10;;;;;;;11.68;100.00;96160.13;1016026;29;20653;-75
2023/09/28 02:09:41;;;;;;;27.33;19.30;;;;;;;11.73;100.00;96175.13;1018989;29;20023;-76
2023/09/28 02:10:12;;;;;;;23.15;18.65;;;;;;;11.73;100.00;96175.13;1023019;29;20099;-75
2023/09/28 02:10:42;;;;;;;26.88;19.83;;;;;;;11.72;100.00;96169.09;1018961;29;20038;-76
2023/09/28 02:11:13;;;;;;;24.00;19.42;;;;;;;11.70;100.00;96180.91;1019524;29;20028;-76
2023/09/28 02:11:44;;;;;;;27.27;19.85;;;;;;;11.68;100.00;96178.53;1023129;28;20039;-76
2023/09/28 02:12:14;;;;;;;26.88;20.00;;;;;;;11.67;100.00;96176.16;1031160;28;20387;-76
2023/09/28 02:12:45;;;;;;;23.05;18.83;;;;;;;11.65;100.00;96178.25;1034877;28;20438;-75
2023/09/28 02:13:15;;;;;;;23.42;19.33;;;;;;;11.58;100.00;96170.63;1030946;28;20042;-76
2023/09/28 02:13:46;;;;;;;28.10;20.52;;;;;;;11.63;100.00;96172.47;1027130;28;20504;-77
2023/09/28 02:14:16;;;;;;;26.92;19.00;;;;;;;11.51;100.00;96164.81;1023046;28;20027;-76
2023/09/28 02:14:47;;;;;;;26.58;19.95;;;;;;;11.56;100.00;96178.75;1026192;28;20041;-78
2023/09/28 02:15:17;;;;;;;23.95;19.00;;;;;;;11.50;100.00;96174.53;1027163;28;20499;-77
2023/09/28 02:15:48;;;;;;;28.50;20.58;;;;;;;11.55;100.00;96176.38;1022846;29;20019;-76
2023/09/28 02:16:18;;;;;;;25.05;20.15;;;;;;;11.51;100.00;96173.50;1019109;29;20027;-76
2023/09/28 02:16:52;;;;;;;24.58;18.77;;;;;;;11.55;100.00;96179.00;1015149;29;20032;-75
2023/09/28 02:17:22;;;;;;;32.25;20.40;;;;;;;11.41;100.00;96157.69;1019440;29;20015;-76
2023/09/28 02:17:53;;;;;;;27.98;19.77;;;;;;;11.52;100.00;96171.66;1023554;28;20033;-76
2023/09/28 02:18:23;;;;;;;27.70;19.95;;;;;;;11.53;100.00;96178.47;1023383;28;20023;-78
2023/09/28 02:18:55;;;;;;;28.23;19.65;;;;;;;11.48;100.00;96173.22;1019084;28;20031;-75
2023/09/28 02:19:25;;;;;;;26.45;19.80;;;;;;;11.57;100.00;96177.72;1023092;29;20574;-76
2023/09/28 02:19:56;;;;;;;25.83;19.17;;;;;;;11.58;100.00;96178.50;1015113;29;20020;-76
2023/09/28 02:20:26;;;;;;;28.15;20.23;;;;;;;11.60;100.00;96179.03;1014946;29;20596;-76
2023/09/28 02:20:57;;;;;;;25.05;19.73;;;;;;;11.58;100.00;96186.38;1015303;29;20047;-76
2023/09/28 02:21:27;;;;;;;25.80;19.10;;;;;;;11.60;100.00;96180.88;1015398;29;20020;-76
2023/09/28 02:21:58;;;;;;;26.98;20.52;;;;;;;11.59;100.00;96187.97;1022987;28;20461;-76
2023/09/28 02:22:28;;;;;;;25.30;19.17;;;;;;;11.62;100.00;96184.03;1022702;28;20027;-76